sensor_id;sensor_type;location;lat;lon;timestamp;temperature;humidity
1277;DHT22;631;51.024;13.826;2022-10-15T08:06:17;16.70;99.90
1277;DHT22;631;51.024;13.826;2022-10-15T08:08:43;16.90;99.90
1277;DHT22;631;51.024;13.826;2022-10-15T08:11:15;16.90;99.90
1277;DHT22;631;51.024;13.826;2022-10-15T08:13:41;16.90;99.90
1277;DHT22;631;51.024;13.826;2022-10-15T08:16:13;17.00;99.90
1277;DHT22;631;51.024;13.826;2022-10-15T08:18:39;17.00;99.90
1277;DHT22;631;51.024;13.826;2022-10-15T08:21:06;17.00;99.90
1277;DHT22;631;51.024;13.826;2022-10-15T08:23:33;17.00;99.90
1277;DHT22;631;51.024;13.826;2022-10-15T08:25:59;16.80;99.90
1277;DHT22;631;51.024;13.826;2022-10-15T08:28:26;16.80;99.90
1277;DHT22;631;51.024;13.826;2022-10-15T08:30:52;16.90;99.90
1277;DHT22;631;51.024;13.826;2022-10-15T08:33:17;16.80;99.90
1277;DHT22;631;51.024;13.826;2022-10-15T08:35:43;16.70;99.90
1277;DHT22;631;51.024;13.826;2022-10-15T08:38:12;16.70;99.90
1277;DHT22;631;51.024;13.826;2022-10-15T08:40:38;16.60;99.90
1277;DHT22;631;51.024;13.826;2022-10-15T08:43:24;16.60;99.90
1277;DHT22;631;51.024;13.826;2022-10-15T08:45:56;16.70;99.90
1277;DHT22;631;51.024;13.826;2022-10-15T08:48:35;16.80;99.90
1277;DHT22;631;51.024;13.826;2022-10-15T08:51:08;16.90;99.90
1277;DHT22;631;51.024;13.826;2022-10-15T08:53:41;17.00;99.90
1277;DHT22;631;51.024;13.826;2022-10-15T08:56:20;17.00;99.90
1277;DHT22;631;51.024;13.826;2022-10-15T09:01:52;17.00;99.90
1277;DHT22;631;51.024;13.826;2022-10-15T09:06:52;17.10;99.90
1277;DHT22;631;51.024;13.826;2022-10-15T09:12:03;17.00;99.90
1277;DHT22;631;51.024;13.826;2022-10-15T09:14:42;17.10;99.90
1277;DHT22;631;51.024;13.826;2022-10-15T09:17:23;17.20;99.90
1277;DHT22;631;51.024;13.826;2022-10-15T09:19:52;17.20;99.90
1277;DHT22;631;51.024;13.826;2022-10-15T09:22:23;17.20;99.90
1277;DHT22;631;51.024;13.826;2022-10-15T09:24:49;17.50;99.90
1277;DHT22;631;51.024;13.826;2022-10-15T09:32:54;17.80;99.90
1277;DHT22;631;51.024;13.826;2022-10-15T09:35:27;18.00;99.90
1277;DHT22;631;51.024;13.826;2022-10-15T09:40:44;18.20;99.90
1277;DHT22;631;51.024;13.826;2022-10-15T09:43:20;18.10;99.90
1277;DHT22;631;51.024;13.826;2022-10-15T09:45:51;18.20;99.90
1277;DHT22;631;51.024;13.826;2022-10-15T09:48:18;18.30;99.90
1277;DHT22;631;51.024;13.826;2022-10-15T09:51:23;18.30;99.90
1277;DHT22;631;51.024;13.826;2022-10-15T09:56:43;18.40;99.90
1277;DHT22;631;51.024;13.826;2022-10-15T09:59:15;18.30;99.90
1277;DHT22;631;51.024;13.826;2022-10-15T10:01:59;18.20;99.90
1277;DHT22;631;51.024;13.826;2022-10-15T10:04:30;18.20;99.90
1277;DHT22;631;51.024;13.826;2022-10-15T10:06:59;18.30;99.90
1277;DHT22;631;51.024;13.826;2022-10-15T10:12:01;18.60;99.90
1277;DHT22;631;51.024;13.826;2022-10-15T10:14:31;18.50;99.90
1277;DHT22;631;51.024;13.826;2022-10-15T10:17:14;18.50;99.90
1277;DHT22;631;51.024;13.826;2022-10-15T10:19:44;18.60;99.90
1277;DHT22;631;51.024;13.826;2022-10-15T10:22:18;18.60;99.90
1277;DHT22;631;51.024;13.826;2022-10-15T10:24:46;18.50;99.90
1277;DHT22;631;51.024;13.826;2022-10-15T10:27:27;18.50;99.90
1277;DHT22;631;51.024;13.826;2022-10-15T10:30:00;18.60;99.90
1277;DHT22;631;51.024;13.826;2022-10-15T10:32:29;18.50;99.90
1277;DHT22;631;51.024;13.826;2022-10-15T10:34:56;18.40;99.90
1277;DHT22;631;51.024;13.826;2022-10-15T10:37:23;18.50;99.90
1277;DHT22;631;51.024;13.826;2022-10-15T10:39:57;18.60;99.90
1277;DHT22;631;51.024;13.826;2022-10-15T10:42:34;18.60;99.90
1277;DHT22;631;51.024;13.826;2022-10-15T10:47:42;18.80;99.90
1277;DHT22;631;51.024;13.826;2022-10-15T10:50:27;18.90;99.90
1277;DHT22;631;51.024;13.826;2022-10-15T10:52:53;19.10;99.90
1277;DHT22;631;51.024;13.826;2022-10-15T10:55:21;19.10;99.90
1277;DHT22;631;51.024;13.826;2022-10-15T10:57:50;19.10;99.90
1277;DHT22;631;51.024;13.826;2022-10-15T11:00:34;19.20;99.90
1277;DHT22;631;51.024;13.826;2022-10-15T11:03:01;19.40;99.90
1277;DHT22;631;51.024;13.826;2022-10-15T11:05:29;19.50;99.90
1277;DHT22;631;51.024;13.826;2022-10-15T11:08:00;19.50;99.90
1277;DHT22;631;51.024;13.826;2022-10-15T11:13:26;19.70;99.90
1277;DHT22;631;51.024;13.826;2022-10-15T11:16:14;19.80;99.90
1277;DHT22;631;51.024;13.826;2022-10-15T11:18:55;19.90;99.90
1277;DHT22;631;51.024;13.826;2022-10-15T11:24:12;19.90;99.90
1277;DHT22;631;51.024;13.826;2022-10-15T11:27:14;19.90;99.90
1277;DHT22;631;51.024;13.826;2022-10-15T11:35:28;19.70;99.90
1277;DHT22;631;51.024;13.826;2022-10-15T11:38:16;19.50;99.90
1277;DHT22;631;51.024;13.826;2022-10-15T11:40:50;19.40;99.90
1277;DHT22;631;51.024;13.826;2022-10-15T11:49:03;19.40;99.90
1277;DHT22;631;51.024;13.826;2022-10-15T11:56:42;19.40;99.90
1277;DHT22;631;51.024;13.826;2022-10-15T11:59:15;19.40;99.90
1277;DHT22;631;51.024;13.826;2022-10-15T12:01:49;19.30;99.90
1277;DHT22;631;51.024;13.826;2022-10-15T12:04:32;19.20;99.90
1277;DHT22;631;51.024;13.826;2022-10-15T12:07:04;19.10;99.90
1277;DHT22;631;51.024;13.826;2022-10-15T12:09:34;19.10;99.90
1277;DHT22;631;51.024;13.826;2022-10-15T12:12:04;19.20;99.90
1277;DHT22;631;51.024;13.826;2022-10-15T12:14:45;19.30;99.90
1277;DHT22;631;51.024;13.826;2022-10-15T12:22:12;19.40;99.90
1277;DHT22;631;51.024;13.826;2022-10-15T12:24:55;19.60;99.90
1277;DHT22;631;51.024;13.826;2022-10-15T12:27:29;19.60;99.90
1277;DHT22;631;51.024;13.826;2022-10-15T12:32:42;19.60;99.90
1277;DHT22;631;51.024;13.826;2022-10-15T12:37:39;19.70;99.90
1277;DHT22;631;51.024;13.826;2022-10-15T12:43:15;19.90;99.90
1277;DHT22;631;51.024;13.826;2022-10-15T12:45:59;20.00;99.90
1277;DHT22;631;51.024;13.826;2022-10-15T12:48:44;20.30;99.90
1277;DHT22;631;51.024;13.826;2022-10-15T12:53:52;20.10;99.90
1277;DHT22;631;51.024;13.826;2022-10-15T12:56:23;19.90;99.90
1277;DHT22;631;51.024;13.826;2022-10-15T12:58:54;19.80;99.90
1277;DHT22;631;51.024;13.826;2022-10-15T13:11:52;19.10;99.90
1277;DHT22;631;51.024;13.826;2022-10-15T13:14:35;19.30;99.90
1277;DHT22;631;51.024;13.826;2022-10-15T13:20:02;19.40;99.90
1277;DHT22;631;51.024;13.826;2022-10-15T13:22:34;19.70;99.90
1277;DHT22;631;51.024;13.826;2022-10-15T13:25:00;20.70;99.90
1277;DHT22;631;51.024;13.826;2022-10-15T13:27:34;21.80;99.90
1277;DHT22;631;51.024;13.826;2022-10-15T13:32:36;23.70;99.90
1277;DHT22;631;51.024;13.826;2022-10-15T13:35:09;24.30;99.90
1277;DHT22;631;51.024;13.826;2022-10-15T13:37:37;24.80;99.90
1277;DHT22;631;51.024;13.826;2022-10-15T13:40:05;25.30;99.90
1277;DHT22;631;51.024;13.826;2022-10-15T13:42:31;25.70;99.70
1277;DHT22;631;51.024;13.826;2022-10-15T13:45:04;25.40;99.20
1277;DHT22;631;51.024;13.826;2022-10-15T13:47:48;25.10;99.90
1277;DHT22;631;51.024;13.826;2022-10-15T13:55:19;23.30;99.90
1277;DHT22;631;51.024;13.826;2022-10-15T13:57:46;23.00;99.90
1277;DHT22;631;51.024;13.826;2022-10-15T14:00:24;22.90;99.90
1277;DHT22;631;51.024;13.826;2022-10-15T14:03:18;22.80;99.90
1277;DHT22;631;51.024;13.826;2022-10-15T14:05:46;22.70;99.90
1277;DHT22;631;51.024;13.826;2022-10-15T14:10:41;22.30;99.90
1277;DHT22;631;51.024;13.826;2022-10-15T14:13:09;22.10;99.90
1277;DHT22;631;51.024;13.826;2022-10-15T14:18:36;21.50;99.90
1277;DHT22;631;51.024;13.826;2022-10-15T14:21:10;22.00;99.90
1277;DHT22;631;51.024;13.826;2022-10-15T14:23:36;22.50;99.90
1277;DHT22;631;51.024;13.826;2022-10-15T14:26:03;23.10;99.90
1277;DHT22;631;51.024;13.826;2022-10-15T14:28:31;23.70;99.90
1277;DHT22;631;51.024;13.826;2022-10-15T14:30:58;23.80;99.90
1277;DHT22;631;51.024;13.826;2022-10-15T14:38:32;23.30;99.90
1277;DHT22;631;51.024;13.826;2022-10-15T14:46:39;22.00;99.90
1277;DHT22;631;51.024;13.826;2022-10-15T14:49:22;21.60;99.90
1277;DHT22;631;51.024;13.826;2022-10-15T14:52:00;21.50;99.90
1277;DHT22;631;51.024;13.826;2022-10-15T14:54:39;21.30;99.90
1277;DHT22;631;51.024;13.826;2022-10-15T14:57:21;21.20;99.90
1277;DHT22;631;51.024;13.826;2022-10-15T14:59:52;21.10;99.90
1277;DHT22;631;51.024;13.826;2022-10-15T15:02:19;20.90;99.90
1277;DHT22;631;51.024;13.826;2022-10-15T15:04:51;20.70;99.90
1277;DHT22;631;51.024;13.826;2022-10-15T15:07:28;20.80;99.90
1277;DHT22;631;51.024;13.826;2022-10-15T15:09:53;20.80;99.90
1277;DHT22;631;51.024;13.826;2022-10-15T15:12:22;20.80;99.90
1277;DHT22;631;51.024;13.826;2022-10-15T15:14:49;20.70;99.90
1277;DHT22;631;51.024;13.826;2022-10-15T15:17:17;20.60;99.90
1277;DHT22;631;51.024;13.826;2022-10-15T15:19:43;20.40;99.90
1277;DHT22;631;51.024;13.826;2022-10-15T15:22:15;20.30;99.90
1277;DHT22;631;51.024;13.826;2022-10-15T15:24:42;20.20;99.90
1277;DHT22;631;51.024;13.826;2022-10-15T15:27:26;20.00;99.90
1277;DHT22;631;51.024;13.826;2022-10-15T15:29:53;19.90;99.90
1277;DHT22;631;51.024;13.826;2022-10-15T15:32:20;19.70;99.90
1277;DHT22;631;51.024;13.826;2022-10-15T15:34:46;19.40;99.90
1277;DHT22;631;51.024;13.826;2022-10-15T15:37:19;19.30;99.90
1277;DHT22;631;51.024;13.826;2022-10-15T15:39:45;19.20;99.90
1277;DHT22;631;51.024;13.826;2022-10-15T15:42:19;19.10;99.90
1277;DHT22;631;51.024;13.826;2022-10-15T15:44:46;18.90;99.90
1277;DHT22;631;51.024;13.826;2022-10-15T15:47:12;18.80;99.90
1277;DHT22;631;51.024;13.826;2022-10-15T15:49:38;18.70;99.90
1277;DHT22;631;51.024;13.826;2022-10-15T15:52:05;18.60;99.90
1277;DHT22;631;51.024;13.826;2022-10-15T15:54:33;18.50;99.90
1277;DHT22;631;51.024;13.826;2022-10-15T15:56:58;18.30;99.90
1277;DHT22;631;51.024;13.826;2022-10-15T15:59:24;18.30;99.90
1277;DHT22;631;51.024;13.826;2022-10-15T16:01:49;18.10;99.90
1277;DHT22;631;51.024;13.826;2022-10-15T16:04:15;17.90;99.90
1277;DHT22;631;51.024;13.826;2022-10-15T16:06:41;17.80;99.90
1277;DHT22;631;51.024;13.826;2022-10-15T16:09:08;17.70;99.90
1277;DHT22;631;51.024;13.826;2022-10-15T16:11:36;17.60;99.90
1277;DHT22;631;51.024;13.826;2022-10-15T16:14:02;17.50;99.90
1277;DHT22;631;51.024;13.826;2022-10-15T16:16:28;17.50;99.90
1277;DHT22;631;51.024;13.826;2022-10-15T16:18:53;17.40;99.90
1277;DHT22;631;51.024;13.826;2022-10-15T16:21:23;17.20;99.90
1277;DHT22;631;51.024;13.826;2022-10-15T16:23:49;17.10;99.90
1277;DHT22;631;51.024;13.826;2022-10-15T16:26:15;17.00;99.90
1277;DHT22;631;51.024;13.826;2022-10-15T16:28:41;16.90;99.90
1277;DHT22;631;51.024;13.826;2022-10-15T16:31:21;16.80;99.90
1277;DHT22;631;51.024;13.826;2022-10-15T16:33:48;16.70;99.90
1277;DHT22;631;51.024;13.826;2022-10-15T16:36:14;16.60;99.90
1277;DHT22;631;51.024;13.826;2022-10-15T16:38:40;16.60;99.90
1277;DHT22;631;51.024;13.826;2022-10-15T16:41:07;16.40;99.90
1277;DHT22;631;51.024;13.826;2022-10-15T16:43:34;16.30;99.90
1277;DHT22;631;51.024;13.826;2022-10-15T16:46:00;16.30;99.90
1277;DHT22;631;51.024;13.826;2022-10-15T16:48:28;16.20;99.90
1277;DHT22;631;51.024;13.826;2022-10-15T16:51:08;16.10;99.90
1277;DHT22;631;51.024;13.826;2022-10-15T16:53:35;16.10;99.90
1277;DHT22;631;51.024;13.826;2022-10-15T16:56:03;16.00;99.90
1277;DHT22;631;51.024;13.826;2022-10-15T16:58:30;16.00;99.90
1277;DHT22;631;51.024;13.826;2022-10-15T17:01:00;15.90;99.90
1277;DHT22;631;51.024;13.826;2022-10-15T17:03:26;15.90;99.90
1277;DHT22;631;51.024;13.826;2022-10-15T17:05:58;15.80;99.90
1277;DHT22;631;51.024;13.826;2022-10-15T17:08:27;15.80;99.90
1277;DHT22;631;51.024;13.826;2022-10-15T17:10:53;15.80;99.90
1277;DHT22;631;51.024;13.826;2022-10-15T17:13:18;15.80;99.90
1277;DHT22;631;51.024;13.826;2022-10-15T17:15:45;15.80;99.90
1277;DHT22;631;51.024;13.826;2022-10-15T17:18:11;15.80;99.90
1277;DHT22;631;51.024;13.826;2022-10-15T17:20:43;15.70;99.90
1277;DHT22;631;51.024;13.826;2022-10-15T17:23:08;15.70;99.90
1277;DHT22;631;51.024;13.826;2022-10-15T17:25:35;15.70;99.90
1277;DHT22;631;51.024;13.826;2022-10-15T17:28:00;15.60;99.90
1277;DHT22;631;51.024;13.826;2022-10-15T17:30:26;15.70;99.90
1277;DHT22;631;51.024;13.826;2022-10-15T17:32:51;15.60;99.90
1277;DHT22;631;51.024;13.826;2022-10-15T17:35:17;15.50;99.90
1277;DHT22;631;51.024;13.826;2022-10-15T17:37:42;15.50;99.90
1277;DHT22;631;51.024;13.826;2022-10-15T17:40:09;15.50;99.90
1277;DHT22;631;51.024;13.826;2022-10-15T17:42:35;15.50;99.90
1277;DHT22;631;51.024;13.826;2022-10-15T17:45:01;15.50;99.90
1277;DHT22;631;51.024;13.826;2022-10-15T17:47:26;15.40;99.90
1277;DHT22;631;51.024;13.826;2022-10-15T17:49:52;15.40;99.90
1277;DHT22;631;51.024;13.826;2022-10-15T17:52:17;15.30;99.90
1277;DHT22;631;51.024;13.826;2022-10-15T17:54:43;15.30;99.90
1277;DHT22;631;51.024;13.826;2022-10-15T17:57:09;15.20;99.90
1277;DHT22;631;51.024;13.826;2022-10-15T17:59:34;15.20;99.90
1277;DHT22;631;51.024;13.826;2022-10-15T18:02:00;15.10;99.90
1277;DHT22;631;51.024;13.826;2022-10-15T18:04:27;15.10;99.90
1277;DHT22;631;51.024;13.826;2022-10-15T18:06:53;15.00;99.90
1277;DHT22;631;51.024;13.826;2022-10-15T18:09:19;15.00;99.90
1277;DHT22;631;51.024;13.826;2022-10-15T18:11:44;14.90;99.90
1277;DHT22;631;51.024;13.826;2022-10-15T18:14:10;14.90;99.90
1277;DHT22;631;51.024;13.826;2022-10-15T18:16:36;14.90;99.90
1277;DHT22;631;51.024;13.826;2022-10-15T18:19:01;14.90;99.90
1277;DHT22;631;51.024;13.826;2022-10-15T18:21:27;14.80;99.90
1277;DHT22;631;51.024;13.826;2022-10-15T18:23:53;14.80;99.90
1277;DHT22;631;51.024;13.826;2022-10-15T18:26:21;14.80;99.90
1277;DHT22;631;51.024;13.826;2022-10-15T18:28:48;14.70;99.90
1277;DHT22;631;51.024;13.826;2022-10-15T18:31:15;14.70;99.90
1277;DHT22;631;51.024;13.826;2022-10-15T18:33:47;14.60;99.90
1277;DHT22;631;51.024;13.826;2022-10-15T18:36:15;14.60;99.90
1277;DHT22;631;51.024;13.826;2022-10-15T18:38:41;14.60;99.90
1277;DHT22;631;51.024;13.826;2022-10-15T18:41:16;14.50;99.90
1277;DHT22;631;51.024;13.826;2022-10-15T18:43:43;14.50;99.90
1277;DHT22;631;51.024;13.826;2022-10-15T18:46:08;14.50;99.90
1277;DHT22;631;51.024;13.826;2022-10-15T18:48:35;14.50;99.90
1277;DHT22;631;51.024;13.826;2022-10-15T18:51:05;14.40;99.90
1277;DHT22;631;51.024;13.826;2022-10-15T18:53:30;14.40;99.90
1277;DHT22;631;51.024;13.826;2022-10-15T18:55:58;14.40;99.90
1277;DHT22;631;51.024;13.826;2022-10-15T18:58:23;14.40;99.90
1277;DHT22;631;51.024;13.826;2022-10-15T19:00:49;14.40;99.90
1277;DHT22;631;51.024;13.826;2022-10-15T19:03:14;14.30;99.90
1277;DHT22;631;51.024;13.826;2022-10-15T19:05:40;14.30;99.90
1277;DHT22;631;51.024;13.826;2022-10-15T19:08:05;14.30;99.90
1277;DHT22;631;51.024;13.826;2022-10-15T19:10:31;14.30;99.90
1277;DHT22;631;51.024;13.826;2022-10-15T19:12:57;14.20;99.90
1277;DHT22;631;51.024;13.826;2022-10-15T19:15:22;14.30;99.90
1277;DHT22;631;51.024;13.826;2022-10-15T19:17:48;14.30;99.90
1277;DHT22;631;51.024;13.826;2022-10-15T19:20:14;14.20;99.90
1277;DHT22;631;51.024;13.826;2022-10-15T19:22:39;14.20;99.90
1277;DHT22;631;51.024;13.826;2022-10-15T19:25:05;14.20;99.90
1277;DHT22;631;51.024;13.826;2022-10-15T19:27:31;14.20;99.90
1277;DHT22;631;51.024;13.826;2022-10-15T19:29:57;14.20;99.90
1277;DHT22;631;51.024;13.826;2022-10-15T19:32:23;14.20;99.90
1277;DHT22;631;51.024;13.826;2022-10-15T19:34:48;14.30;99.90
1277;DHT22;631;51.024;13.826;2022-10-15T19:37:14;14.30;99.90
1277;DHT22;631;51.024;13.826;2022-10-15T19:39:39;14.20;99.90
1277;DHT22;631;51.024;13.826;2022-10-15T19:42:05;14.30;99.90
1277;DHT22;631;51.024;13.826;2022-10-15T19:44:31;14.30;99.90
1277;DHT22;631;51.024;13.826;2022-10-15T19:46:56;14.20;99.90
1277;DHT22;631;51.024;13.826;2022-10-15T19:49:22;14.20;99.90
1277;DHT22;631;51.024;13.826;2022-10-15T19:51:49;14.20;99.90
1277;DHT22;631;51.024;13.826;2022-10-15T19:54:15;14.20;99.90
1277;DHT22;631;51.024;13.826;2022-10-15T19:56:41;14.10;99.90
1277;DHT22;631;51.024;13.826;2022-10-15T19:59:06;14.10;99.90
1277;DHT22;631;51.024;13.826;2022-10-15T20:01:33;14.10;99.90
1277;DHT22;631;51.024;13.826;2022-10-15T20:04:00;14.10;99.90
1277;DHT22;631;51.024;13.826;2022-10-15T20:06:26;14.10;99.90
1277;DHT22;631;51.024;13.826;2022-10-15T20:08:52;14.10;99.90
1277;DHT22;631;51.024;13.826;2022-10-15T20:11:18;14.10;99.90
1277;DHT22;631;51.024;13.826;2022-10-15T20:13:44;14.10;99.90
1277;DHT22;631;51.024;13.826;2022-10-15T20:16:11;14.10;99.90
1277;DHT22;631;51.024;13.826;2022-10-15T20:18:39;14.10;99.90
1277;DHT22;631;51.024;13.826;2022-10-15T20:21:06;14.10;99.90
1277;DHT22;631;51.024;13.826;2022-10-15T20:23:32;14.00;99.90
1277;DHT22;631;51.024;13.826;2022-10-15T20:26:03;14.00;99.90
1277;DHT22;631;51.024;13.826;2022-10-15T20:28:29;14.10;99.90
1277;DHT22;631;51.024;13.826;2022-10-15T20:30:55;14.10;99.90
1277;DHT22;631;51.024;13.826;2022-10-15T20:33:20;14.10;99.90
1277;DHT22;631;51.024;13.826;2022-10-15T20:35:46;14.10;99.90
1277;DHT22;631;51.024;13.826;2022-10-15T20:38:15;14.10;99.90
1277;DHT22;631;51.024;13.826;2022-10-15T20:40:41;14.10;99.90
1277;DHT22;631;51.024;13.826;2022-10-15T20:43:07;14.20;99.90
1277;DHT22;631;51.024;13.826;2022-10-15T20:45:38;14.20;99.90
1277;DHT22;631;51.024;13.826;2022-10-15T20:48:05;14.20;99.90
1277;DHT22;631;51.024;13.826;2022-10-15T20:50:33;14.30;99.90
1277;DHT22;631;51.024;13.826;2022-10-15T20:53:00;14.30;99.90
1277;DHT22;631;51.024;13.826;2022-10-15T20:55:27;14.40;99.90
1277;DHT22;631;51.024;13.826;2022-10-15T20:57:53;14.50;99.90
1277;DHT22;631;51.024;13.826;2022-10-15T21:00:19;14.60;99.90
1277;DHT22;631;51.024;13.826;2022-10-15T21:02:45;14.60;99.90
1277;DHT22;631;51.024;13.826;2022-10-15T21:05:10;14.70;99.90
1277;DHT22;631;51.024;13.826;2022-10-15T21:07:36;14.80;99.90
1277;DHT22;631;51.024;13.826;2022-10-15T21:10:02;14.80;99.90
1277;DHT22;631;51.024;13.826;2022-10-15T21:12:27;14.90;99.90
1277;DHT22;631;51.024;13.826;2022-10-15T21:14:53;15.00;99.90
1277;DHT22;631;51.024;13.826;2022-10-15T21:17:19;15.00;99.90
1277;DHT22;631;51.024;13.826;2022-10-15T21:19:44;15.10;99.90
1277;DHT22;631;51.024;13.826;2022-10-15T21:22:10;15.20;99.90
1277;DHT22;631;51.024;13.826;2022-10-15T21:24:35;15.20;99.90
1277;DHT22;631;51.024;13.826;2022-10-15T21:27:02;15.20;99.90
1277;DHT22;631;51.024;13.826;2022-10-15T21:29:28;15.30;99.90
1277;DHT22;631;51.024;13.826;2022-10-15T21:31:54;15.40;99.90
1277;DHT22;631;51.024;13.826;2022-10-15T21:34:19;15.50;99.90
1277;DHT22;631;51.024;13.826;2022-10-15T21:36:47;15.60;99.90
1277;DHT22;631;51.024;13.826;2022-10-15T21:39:14;15.60;99.90
1277;DHT22;631;51.024;13.826;2022-10-15T21:41:40;15.60;99.90
1277;DHT22;631;51.024;13.826;2022-10-15T21:44:06;15.70;99.90
1277;DHT22;631;51.024;13.826;2022-10-15T21:46:33;15.70;99.90
1277;DHT22;631;51.024;13.826;2022-10-15T21:48:59;15.70;99.90
1277;DHT22;631;51.024;13.826;2022-10-15T21:51:27;15.80;99.90
1277;DHT22;631;51.024;13.826;2022-10-15T21:53:54;15.80;99.90
1277;DHT22;631;51.024;13.826;2022-10-15T21:56:21;15.80;99.90
1277;DHT22;631;51.024;13.826;2022-10-15T21:58:46;15.80;99.90
1277;DHT22;631;51.024;13.826;2022-10-15T22:03:39;15.80;99.90
1277;DHT22;631;51.024;13.826;2022-10-15T22:06:06;15.70;99.90
1277;DHT22;631;51.024;13.826;2022-10-15T22:08:32;15.80;99.90
1277;DHT22;631;51.024;13.826;2022-10-15T22:11:13;15.80;99.90
1277;DHT22;631;51.024;13.826;2022-10-15T22:13:40;15.80;99.90
1277;DHT22;631;51.024;13.826;2022-10-15T22:16:07;15.80;99.90
1277;DHT22;631;51.024;13.826;2022-10-15T22:18:34;15.90;99.90
1277;DHT22;631;51.024;13.826;2022-10-15T22:21:17;15.90;99.90
1277;DHT22;631;51.024;13.826;2022-10-15T22:23:44;15.90;99.90
1277;DHT22;631;51.024;13.826;2022-10-15T22:26:11;16.10;99.90
1277;DHT22;631;51.024;13.826;2022-10-15T22:28:37;16.10;99.90
1277;DHT22;631;51.024;13.826;2022-10-15T22:31:04;16.10;99.90
1277;DHT22;631;51.024;13.826;2022-10-15T22:33:30;16.20;99.90
1277;DHT22;631;51.024;13.826;2022-10-15T22:36:00;16.20;99.90
1277;DHT22;631;51.024;13.826;2022-10-15T22:38:26;16.30;99.90
1277;DHT22;631;51.024;13.826;2022-10-15T22:40:53;16.30;99.90
1277;DHT22;631;51.024;13.826;2022-10-15T22:43:19;16.20;99.90
1277;DHT22;631;51.024;13.826;2022-10-15T22:45:45;16.30;99.90
1277;DHT22;631;51.024;13.826;2022-10-15T22:48:10;16.40;99.90
1277;DHT22;631;51.024;13.826;2022-10-15T22:50:36;16.40;99.90
1277;DHT22;631;51.024;13.826;2022-10-15T22:53:02;16.40;99.90
1277;DHT22;631;51.024;13.826;2022-10-15T22:55:27;16.40;99.90
1277;DHT22;631;51.024;13.826;2022-10-15T22:57:53;16.40;99.90
1277;DHT22;631;51.024;13.826;2022-10-15T23:00:19;16.50;99.90
1277;DHT22;631;51.024;13.826;2022-10-15T23:02:45;16.50;99.90
1277;DHT22;631;51.024;13.826;2022-10-15T23:05:10;16.50;99.90
1277;DHT22;631;51.024;13.826;2022-10-15T23:07:36;16.50;99.90
1277;DHT22;631;51.024;13.826;2022-10-15T23:10:04;16.60;99.90
1277;DHT22;631;51.024;13.826;2022-10-15T23:12:30;16.50;99.90
1277;DHT22;631;51.024;13.826;2022-10-15T23:14:55;16.50;99.90
1277;DHT22;631;51.024;13.826;2022-10-15T23:17:21;16.50;99.90
1277;DHT22;631;51.024;13.826;2022-10-15T23:19:48;16.50;99.90
1277;DHT22;631;51.024;13.826;2022-10-15T23:22:13;16.40;99.90
1277;DHT22;631;51.024;13.826;2022-10-15T23:24:39;16.40;99.90
1277;DHT22;631;51.024;13.826;2022-10-15T23:27:05;16.40;99.90
1277;DHT22;631;51.024;13.826;2022-10-15T23:29:30;16.40;99.90
1277;DHT22;631;51.024;13.826;2022-10-15T23:31:56;16.30;99.90
1277;DHT22;631;51.024;13.826;2022-10-15T23:34:24;16.30;99.90
1277;DHT22;631;51.024;13.826;2022-10-15T23:36:50;16.20;99.90
1277;DHT22;631;51.024;13.826;2022-10-15T23:39:18;16.20;99.90
1277;DHT22;631;51.024;13.826;2022-10-15T23:41:45;16.10;99.90
1277;DHT22;631;51.024;13.826;2022-10-15T23:44:11;16.10;99.90
1277;DHT22;631;51.024;13.826;2022-10-15T23:46:37;16.00;99.90
1277;DHT22;631;51.024;13.826;2022-10-15T23:49:03;15.90;99.90
1277;DHT22;631;51.024;13.826;2022-10-15T23:51:30;15.90;99.90
1277;DHT22;631;51.024;13.826;2022-10-15T23:53:57;15.90;99.90
1277;DHT22;631;51.024;13.826;2022-10-15T23:56:24;15.80;99.90
1277;DHT22;631;51.024;13.826;2022-10-15T23:58:52;15.80;99.90
